createdAt,value
2023-02-27T00:03:05.165Z,20.61
2023-02-27T00:07:05.393Z,20.60
2023-02-27T00:11:05.580Z,20.60
2023-02-27T00:15:05.539Z,20.60
2023-02-27T00:19:05.516Z,20.59
2023-02-27T00:23:05.494Z,20.59
2023-02-27T00:27:05.455Z,20.58
2023-02-27T00:31:05.469Z,20.59
2023-02-27T00:35:05.391Z,20.59
2023-02-27T00:39:05.337Z,20.58
2023-02-27T00:43:05.309Z,20.58
2023-02-27T00:47:05.244Z,20.57
2023-02-27T00:51:05.228Z,20.57
2023-02-27T00:55:05.422Z,20.56
2023-02-27T00:59:05.384Z,20.56
2023-02-27T01:03:05.337Z,20.56
2023-02-27T01:07:05.300Z,20.56
2023-02-27T01:11:05.289Z,20.55
2023-02-27T01:15:05.265Z,20.54
2023-02-27T01:19:05.243Z,20.55
2023-02-27T01:23:05.207Z,20.54
2023-02-27T01:27:05.188Z,20.54
2023-02-27T01:31:05.112Z,20.53
2023-02-27T01:35:05.065Z,20.53
2023-02-27T01:39:05.214Z,20.52
2023-02-27T01:43:05.186Z,20.53
2023-02-27T01:47:05.160Z,20.52
2023-02-27T01:51:05.146Z,20.51
2023-02-27T01:55:05.125Z,20.52
2023-02-27T01:59:05.046Z,20.50
2023-02-27T02:03:05.021Z,20.50
2023-02-27T02:07:04.980Z,20.50
2023-02-27T02:11:04.986Z,20.49
2023-02-27T02:15:04.892Z,20.50
2023-02-27T02:19:04.848Z,20.49
2023-02-27T02:23:04.848Z,20.50
2023-02-27T02:27:04.801Z,20.49
2023-02-27T02:31:04.830Z,20.48
2023-02-27T02:35:04.720Z,20.49
2023-02-27T02:39:04.670Z,20.48
2023-02-27T02:43:04.634Z,20.47
2023-02-27T02:47:04.676Z,20.47
2023-02-27T02:51:04.587Z,20.47
2023-02-27T02:55:04.526Z,20.46
2023-02-27T02:59:04.578Z,20.47
2023-02-27T03:03:04.551Z,20.47
2023-02-27T03:07:04.513Z,20.45
2023-02-27T03:11:04.498Z,20.45
2023-02-27T03:15:04.432Z,20.44
2023-02-27T03:19:04.414Z,20.44
2023-02-27T03:23:04.399Z,20.44
2023-02-27T03:27:04.360Z,20.44
2023-02-27T03:31:04.386Z,20.43
2023-02-27T03:35:04.275Z,20.43
2023-02-27T03:39:04.239Z,20.42
2023-02-27T03:43:04.202Z,20.42
2023-02-27T03:47:04.402Z,20.42
2023-02-27T03:51:04.615Z,20.42
2023-02-27T03:55:04.810Z,20.41
2023-02-27T03:59:04.791Z,20.41
2023-02-27T04:03:04.792Z,20.41
2023-02-27T04:07:04.702Z,20.41
2023-02-27T04:11:04.656Z,20.41
2023-02-27T04:15:04.645Z,20.41
2023-02-27T04:19:04.586Z,20.43
2023-02-27T04:23:04.553Z,20.44
2023-02-27T04:27:06.700Z,20.45
2023-02-27T04:31:04.854Z,20.46
2023-02-27T04:35:04.710Z,20.46
2023-02-27T04:39:04.700Z,20.47
2023-02-27T04:43:04.639Z,20.48
2023-02-27T04:47:04.607Z,20.49
2023-02-27T04:51:04.539Z,20.49
2023-02-27T04:55:04.521Z,20.49
2023-02-27T04:59:04.514Z,20.50
2023-02-27T05:03:04.467Z,20.50
2023-02-27T05:07:04.409Z,20.49
2023-02-27T05:11:05.938Z,20.50
2023-02-27T05:15:04.731Z,20.49
2023-02-27T05:19:04.699Z,20.49
2023-02-27T05:23:04.703Z,20.49
2023-02-27T05:27:04.646Z,20.49
2023-02-27T05:31:04.609Z,20.49
2023-02-27T05:35:04.585Z,20.47
2023-02-27T05:39:04.552Z,20.46
2023-02-27T05:43:04.484Z,20.46
2023-02-27T05:47:04.472Z,20.46
2023-02-27T05:51:04.429Z,20.46
2023-02-27T05:55:04.430Z,20.46
2023-02-27T05:59:04.692Z,20.46
2023-02-27T06:03:04.671Z,20.46
2023-02-27T06:07:04.914Z,20.47
2023-02-27T06:11:04.594Z,20.48
2023-02-27T06:15:04.539Z,20.48
2023-02-27T06:19:05.081Z,20.49
2023-02-27T06:23:04.461Z,20.50
2023-02-27T06:27:04.399Z,20.52
2023-02-27T06:31:04.411Z,20.52
2023-02-27T06:35:04.351Z,20.54
2023-02-27T06:39:04.691Z,20.57
2023-02-27T06:43:04.271Z,20.66
2023-02-27T06:47:04.766Z,20.77
2023-02-27T06:51:04.670Z,20.89
2023-02-27T06:55:04.206Z,21.02
2023-02-27T06:59:04.181Z,21.15
2023-02-27T07:03:04.077Z,21.27
2023-02-27T07:07:34.311Z,21.39
2023-02-27T07:11:05.009Z,21.47
2023-02-27T07:15:03.957Z,21.54
2023-02-27T07:19:03.930Z,21.60
2023-02-27T07:23:03.912Z,21.65
2023-02-27T07:27:03.882Z,21.72
2023-02-27T07:31:04.243Z,21.78
2023-02-27T07:35:03.772Z,21.83
2023-02-27T07:39:03.760Z,21.88
2023-02-27T07:43:03.836Z,21.94
2023-02-27T07:47:04.201Z,21.97
2023-02-27T07:51:04.208Z,22.00
2023-02-27T07:55:03.763Z,22.02
2023-02-27T07:59:03.700Z,22.06
2023-02-27T08:03:03.770Z,22.07
2023-02-27T08:07:03.620Z,22.09
2023-02-27T08:11:03.595Z,22.14
2023-02-27T08:15:03.572Z,22.20
2023-02-27T08:19:03.680Z,22.19
2023-02-27T08:23:03.889Z,22.20
2023-02-27T08:27:04.072Z,22.21
2023-02-27T08:31:04.328Z,22.22
2023-02-27T08:35:04.501Z,22.23
2023-02-27T08:39:04.690Z,22.26
2023-02-27T08:43:05.232Z,22.26
2023-02-27T08:47:05.068Z,22.30
2023-02-27T08:51:05.241Z,22.43
2023-02-27T08:55:05.305Z,22.56
2023-02-27T08:59:06.243Z,22.65
2023-02-27T09:03:05.429Z,22.70
2023-02-27T09:07:05.500Z,22.78
2023-02-27T09:11:05.442Z,22.83
2023-02-27T09:15:05.410Z,22.86
2023-02-27T09:19:05.362Z,22.94
2023-02-27T09:23:05.557Z,22.98
2023-02-27T09:27:05.750Z,23.02
2023-02-27T09:31:05.913Z,23.08
2023-02-27T09:35:06.063Z,23.13
2023-02-27T09:39:06.265Z,23.17
2023-02-27T09:43:06.442Z,23.17
2023-02-27T09:47:06.761Z,23.15
2023-02-27T09:51:06.747Z,23.12
2023-02-27T09:55:06.778Z,23.06
2023-02-27T09:59:06.491Z,22.95
2023-02-27T10:03:06.824Z,22.87
2023-02-27T10:07:06.427Z,22.80
2023-02-27T10:11:06.392Z,22.73
2023-02-27T10:15:06.360Z,22.68
2023-02-27T10:19:06.807Z,22.63
2023-02-27T10:23:06.300Z,22.57
2023-02-27T10:27:06.233Z,22.54
2023-02-27T10:31:06.327Z,22.52
2023-02-27T10:35:06.331Z,22.49
2023-02-27T10:39:06.341Z,22.46
2023-02-27T10:43:06.600Z,22.46
2023-02-27T10:47:06.055Z,22.56
2023-02-27T10:51:06.740Z,22.74
2023-02-27T10:55:05.995Z,22.88
2023-02-27T10:59:06.260Z,22.97
2023-02-27T11:03:05.920Z,23.05
2023-02-27T11:07:05.893Z,23.11
2023-02-27T11:11:06.301Z,23.17
2023-02-27T11:15:06.155Z,23.20
2023-02-27T11:19:06.350Z,23.23
2023-02-27T11:23:06.520Z,23.23
2023-02-27T11:27:06.793Z,23.27
2023-02-27T11:31:06.941Z,23.29
2023-02-27T11:35:07.280Z,23.28
2023-02-27T11:39:07.204Z,23.24
2023-02-27T11:43:07.804Z,23.24
2023-02-27T11:47:07.805Z,23.32
2023-02-27T11:51:07.665Z,23.36
2023-02-27T11:55:07.749Z,23.41
2023-02-27T11:59:08.333Z,23.43
2023-02-27T12:03:08.873Z,23.42
2023-02-27T12:07:08.325Z,23.44
2023-02-27T12:11:14.344Z,23.45
2023-02-27T12:15:08.934Z,23.48
2023-02-27T12:19:07.883Z,23.50
2023-02-27T12:23:07.865Z,23.52
2023-02-27T12:27:08.318Z,23.55
2023-02-27T12:31:07.875Z,23.58
2023-02-27T12:35:07.835Z,23.56
2023-02-27T12:39:07.858Z,23.46
2023-02-27T12:43:08.928Z,23.34
2023-02-27T12:47:08.844Z,23.22
2023-02-27T12:51:07.910Z,23.10
2023-02-27T12:55:07.850Z,22.95
2023-02-27T12:59:07.820Z,22.88
2023-02-27T13:03:07.781Z,22.83
2023-02-27T13:07:07.743Z,22.79
2023-02-27T13:11:07.774Z,22.75
2023-02-27T13:15:07.694Z,22.71
2023-02-27T13:19:07.656Z,22.67
2023-02-27T13:23:07.648Z,22.64
2023-02-27T13:27:07.883Z,22.60
2023-02-27T13:31:07.578Z,22.58
2023-02-27T13:35:07.529Z,22.58
2023-02-27T13:39:07.581Z,22.58
2023-02-27T13:43:07.429Z,22.57
2023-02-27T13:47:07.479Z,22.58
2023-02-27T13:51:07.348Z,22.58
2023-02-27T13:55:12.123Z,22.59
2023-02-27T13:59:08.302Z,22.60
2023-02-27T14:03:07.302Z,22.60
2023-02-27T14:07:07.233Z,22.62
2023-02-27T14:11:07.195Z,22.63
2023-02-27T14:15:07.146Z,22.64
2023-02-27T14:19:07.129Z,22.66
2023-02-27T14:23:07.100Z,22.68
2023-02-27T14:27:07.032Z,22.69
2023-02-27T14:31:07.044Z,22.70
2023-02-27T14:35:07.002Z,22.69
2023-02-27T14:39:07.042Z,22.68
2023-02-27T14:43:07.051Z,22.67
2023-02-27T14:47:07.107Z,22.68
2023-02-27T14:51:07.082Z,22.65
2023-02-27T14:55:07.169Z,22.66
2023-02-27T14:59:07.198Z,22.66
2023-02-27T15:03:09.327Z,22.64
2023-02-27T15:07:07.205Z,22.64
2023-02-27T15:11:07.362Z,22.61
2023-02-27T15:15:07.176Z,22.55
2023-02-27T15:19:07.108Z,22.51
2023-02-27T15:23:07.077Z,22.47
2023-02-27T15:27:07.042Z,22.42
2023-02-27T15:31:07.022Z,22.37
2023-02-27T15:35:06.960Z,22.33
2023-02-27T15:39:06.913Z,22.30
2023-02-27T15:43:06.860Z,22.27
2023-02-27T15:47:06.848Z,22.23
2023-02-27T15:51:06.791Z,22.21
2023-02-27T15:55:06.751Z,22.17
2023-02-27T15:59:06.717Z,22.15
2023-02-27T16:03:06.924Z,22.13
2023-02-27T16:07:07.153Z,22.11
2023-02-27T16:11:07.407Z,22.09
2023-02-27T16:15:07.555Z,22.07
2023-02-27T16:19:07.538Z,22.05
2023-02-27T16:23:07.525Z,22.04
2023-02-27T16:27:07.465Z,22.01
2023-02-27T16:31:07.425Z,22.00
2023-02-27T16:35:07.385Z,21.98
2023-02-27T16:39:07.365Z,21.96
2023-02-27T16:43:07.354Z,21.94
2023-02-27T16:47:07.306Z,21.92
2023-02-27T16:51:07.237Z,21.90
2023-02-27T16:55:07.210Z,21.88
2023-02-27T16:59:07.406Z,21.86
2023-02-27T17:03:07.609Z,21.84
2023-02-27T17:07:07.800Z,21.81
2023-02-27T17:11:08.436Z,21.80
2023-02-27T17:15:08.218Z,21.79
2023-02-27T17:19:08.298Z,21.78
2023-02-27T17:23:08.364Z,21.77
2023-02-27T17:27:08.444Z,21.76
2023-02-27T17:31:08.607Z,21.75
2023-02-27T17:35:08.529Z,21.74
2023-02-27T17:39:08.602Z,21.73
2023-02-27T17:43:08.686Z,21.72
2023-02-27T17:47:08.743Z,21.70
2023-02-27T17:51:08.721Z,21.69
2023-02-27T17:55:08.786Z,21.68
2023-02-27T17:59:08.753Z,21.67
2023-02-27T18:03:08.701Z,21.66
2023-02-27T18:07:08.688Z,21.65
2023-02-27T18:11:08.650Z,21.65
2023-02-27T18:15:08.631Z,21.64
2023-02-27T18:19:08.673Z,21.64
2023-02-27T18:23:08.638Z,21.63
2023-02-27T18:27:08.685Z,21.62
2023-02-27T18:31:08.657Z,21.62
2023-02-27T18:35:08.647Z,21.62
2023-02-27T18:39:08.624Z,21.60
2023-02-27T18:43:08.616Z,21.59
2023-02-27T18:47:08.654Z,21.59
2023-02-27T18:51:08.640Z,21.57
2023-02-27T18:55:08.652Z,21.57
2023-02-27T18:59:08.649Z,21.56
2023-02-27T19:03:08.772Z,21.54
2023-02-27T19:07:08.672Z,21.53
2023-02-27T19:11:08.794Z,21.52
2023-02-27T19:15:08.759Z,21.51
2023-02-27T19:19:08.774Z,21.50
2023-02-27T19:23:08.810Z,21.49
2023-02-27T19:27:08.857Z,21.48
2023-02-27T19:31:08.924Z,21.47
2023-02-27T19:35:08.941Z,21.47
2023-02-27T19:39:08.985Z,21.45
2023-02-27T19:43:08.993Z,21.43
2023-02-27T19:47:09.170Z,21.44
2023-02-27T19:51:09.089Z,21.41
2023-02-27T19:55:09.148Z,21.40
2023-02-27T19:59:09.194Z,21.39
2023-02-27T20:03:09.250Z,21.39
2023-02-27T20:07:09.298Z,21.37
2023-02-27T20:11:09.346Z,21.35
2023-02-27T20:15:09.395Z,21.34
2023-02-27T20:19:09.475Z,21.33
2023-02-27T20:23:09.457Z,21.33
2023-02-27T20:27:09.532Z,21.32
2023-02-27T20:31:09.575Z,21.32
2023-02-27T20:35:09.621Z,21.30
2023-02-27T20:39:09.678Z,21.30
2023-02-27T20:43:09.751Z,21.29
2023-02-27T20:47:09.803Z,21.28
2023-02-27T20:51:09.868Z,21.28
2023-02-27T20:55:09.899Z,21.27
2023-02-27T20:59:09.956Z,21.26
2023-02-27T21:03:09.998Z,21.25
2023-02-27T21:07:10.024Z,21.24
2023-02-27T21:11:10.123Z,21.24
2023-02-27T21:15:10.121Z,21.23
2023-02-27T21:19:10.152Z,21.22
2023-02-27T21:23:10.182Z,21.21
2023-02-27T21:27:10.246Z,21.20
2023-02-27T21:31:10.412Z,21.19
2023-02-27T21:35:10.375Z,21.18
2023-02-27T21:39:10.403Z,21.17
2023-02-27T21:43:10.503Z,21.16
2023-02-27T21:47:10.560Z,21.16
2023-02-27T21:51:10.658Z,21.15
2023-02-27T21:55:10.711Z,21.15
2023-02-27T21:59:10.803Z,21.14
2023-02-27T22:03:10.859Z,21.13
2023-02-27T22:07:11.563Z,21.12
2023-02-27T22:11:11.033Z,21.11
2023-02-27T22:15:11.141Z,21.11
2023-02-27T22:19:11.203Z,21.10
2023-02-27T22:23:11.331Z,21.09
2023-02-27T22:27:11.435Z,21.09
2023-02-27T22:31:11.589Z,21.09
2023-02-27T22:35:11.646Z,21.07
2023-02-27T22:39:11.734Z,21.07
2023-02-27T22:43:11.841Z,21.06
2023-02-27T22:47:11.965Z,21.06
2023-02-27T22:51:12.157Z,21.06
2023-02-27T22:55:12.147Z,21.06
2023-02-27T22:59:12.240Z,21.04
2023-02-27T23:03:12.357Z,21.05
2023-02-27T23:07:12.477Z,21.04
2023-02-27T23:11:12.598Z,21.04
2023-02-27T23:15:12.722Z,21.03
2023-02-27T23:19:12.762Z,21.03
2023-02-27T23:23:12.883Z,21.02
2023-02-27T23:27:25.485Z,21.01
2023-02-27T23:31:13.968Z,21.01
2023-02-27T23:35:12.897Z,21.00
2023-02-27T23:39:12.881Z,20.99
2023-02-27T23:43:12.909Z,20.99
2023-02-27T23:47:13.031Z,20.98
2023-02-27T23:51:13.155Z,20.98
2023-02-27T23:55:13.281Z,20.97
2023-02-27T23:59:13.449Z,20.96
